sensor_id;sensor_type;location;lat;lon;timestamp;pressure;altitude;pressure_sealevel;temperature;humidity
10310;BME280;5200;43.236;27.986;2022-11-15T00:00:49;100847.25;;;7.02;100.00
10310;BME280;5200;43.236;27.986;2022-11-15T00:03:17;100851.63;;;7.01;100.00
10310;BME280;5200;43.236;27.986;2022-11-15T00:05:44;100845.75;;;6.97;100.00
10310;BME280;5200;43.236;27.986;2022-11-15T00:08:11;100838.16;;;6.93;100.00
10310;BME280;5200;43.236;27.986;2022-11-15T00:10:38;100837.34;;;6.92;100.00
10310;BME280;5200;43.236;27.986;2022-11-15T00:13:07;100837.41;;;6.91;100.00
10310;BME280;5200;43.236;27.986;2022-11-15T00:15:35;100835.75;;;6.90;100.00
10310;BME280;5200;43.236;27.986;2022-11-15T00:18:03;100829.69;;;6.89;100.00
10310;BME280;5200;43.236;27.986;2022-11-15T00:20:30;100827.34;;;6.85;100.00
10310;BME280;5200;43.236;27.986;2022-11-15T00:22:57;100833.34;;;6.87;100.00
10310;BME280;5200;43.236;27.986;2022-11-15T00:25:24;100835.00;;;6.88;100.00
10310;BME280;5200;43.236;27.986;2022-11-15T00:27:55;100832.84;;;6.94;100.00
10310;BME280;5200;43.236;27.986;2022-11-15T00:30:23;100824.34;;;6.91;100.00
10310;BME280;5200;43.236;27.986;2022-11-15T00:32:50;100833.59;;;6.96;100.00
10310;BME280;5200;43.236;27.986;2022-11-15T00:35:17;100833.41;;;6.99;100.00
10310;BME280;5200;43.236;27.986;2022-11-15T00:37:44;100836.31;;;6.95;100.00
10310;BME280;5200;43.236;27.986;2022-11-15T00:40:13;100827.44;;;6.97;100.00
10310;BME280;5200;43.236;27.986;2022-11-15T00:42:40;100831.13;;;7.08;100.00
10310;BME280;5200;43.236;27.986;2022-11-15T00:45:08;100820.50;;;7.11;100.00
10310;BME280;5200;43.236;27.986;2022-11-15T00:47:36;100821.53;;;7.08;100.00
10310;BME280;5200;43.236;27.986;2022-11-15T00:50:04;100821.13;;;7.14;100.00
10310;BME280;5200;43.236;27.986;2022-11-15T00:52:31;100820.31;;;7.14;100.00
10310;BME280;5200;43.236;27.986;2022-11-15T00:54:58;100821.34;;;7.11;100.00
10310;BME280;5200;43.236;27.986;2022-11-15T00:57:24;100824.16;;;7.08;100.00
10310;BME280;5200;43.236;27.986;2022-11-15T00:59:51;100818.06;;;7.08;100.00
10310;BME280;5200;43.236;27.986;2022-11-15T01:02:18;100820.59;;;7.09;100.00
10310;BME280;5200;43.236;27.986;2022-11-15T01:04:46;100809.78;;;7.01;100.00
10310;BME280;5200;43.236;27.986;2022-11-15T01:07:13;100814.81;;;7.04;100.00
10310;BME280;5200;43.236;27.986;2022-11-15T01:09:40;100799.47;;;6.98;100.00
10310;BME280;5200;43.236;27.986;2022-11-15T01:12:07;100804.34;;;7.04;100.00
10310;BME280;5200;43.236;27.986;2022-11-15T01:14:34;100804.53;;;7.01;100.00
10310;BME280;5200;43.236;27.986;2022-11-15T01:17:01;100804.72;;;6.98;100.00
10310;BME280;5200;43.236;27.986;2022-11-15T01:19:27;100796.50;;;6.90;100.00
10310;BME280;5200;43.236;27.986;2022-11-15T01:21:56;100809.94;;;6.98;100.00
10310;BME280;5200;43.236;27.986;2022-11-15T01:24:23;100802.97;;;6.98;100.00
10310;BME280;5200;43.236;27.986;2022-11-15T01:26:49;100803.03;;;6.97;100.00
10310;BME280;5200;43.236;27.986;2022-11-15T01:29:16;100804.06;;;6.94;100.00
10310;BME280;5200;43.236;27.986;2022-11-15T01:31:43;100807.88;;;6.89;100.00
10310;BME280;5200;43.236;27.986;2022-11-15T01:34:10;100815.03;;;6.87;100.00
10310;BME280;5200;43.236;27.986;2022-11-15T01:36:37;100804.91;;;6.81;100.00
10310;BME280;5200;43.236;27.986;2022-11-15T01:39:05;100796.41;;;6.77;100.00
10310;BME280;5200;43.236;27.986;2022-11-15T01:41:32;100798.94;;;6.78;100.00
10310;BME280;5200;43.236;27.986;2022-11-15T01:47:02;100785.50;;;6.70;100.00
10310;BME280;5200;43.236;27.986;2022-11-15T01:49:33;100797.34;;;6.76;100.00
10310;BME280;5200;43.236;27.986;2022-11-15T01:52:04;100796.53;;;6.75;100.00
10310;BME280;5200;43.236;27.986;2022-11-15T01:54:33;100794.00;;;6.74;100.00
10310;BME280;5200;43.236;27.986;2022-11-15T01:57:02;100794.75;;;6.76;100.00
10310;BME280;5200;43.236;27.986;2022-11-15T01:59:30;100791.09;;;6.78;100.00
10310;BME280;5200;43.236;27.986;2022-11-15T02:01:57;100788.28;;;6.82;100.00
10310;BME280;5200;43.236;27.986;2022-11-15T02:04:26;100781.38;;;6.81;100.00
10310;BME280;5200;43.236;27.986;2022-11-15T02:06:54;100785.78;;;6.80;100.00
10310;BME280;5200;43.236;27.986;2022-11-15T02:09:21;100783.44;;;6.75;100.00
10310;BME280;5200;43.236;27.986;2022-11-15T02:11:50;100781.56;;;6.77;100.00
10310;BME280;5200;43.236;27.986;2022-11-15T02:14:19;100779.69;;;6.80;100.00
10310;BME280;5200;43.236;27.986;2022-11-15T02:16:50;100778.69;;;6.82;100.00
10310;BME280;5200;43.236;27.986;2022-11-15T02:19:35;100784.75;;;6.83;100.00
10310;BME280;5200;43.236;27.986;2022-11-15T02:22:13;100785.50;;;6.85;100.00
10310;BME280;5200;43.236;27.986;2022-11-15T02:25:01;100789.78;;;6.86;100.00
10310;BME280;5200;43.236;27.986;2022-11-15T02:30:41;100781.66;;;6.90;100.00
10310;BME280;5200;43.236;27.986;2022-11-15T02:33:19;100780.81;;;6.90;100.00
10310;BME280;5200;43.236;27.986;2022-11-15T02:35:54;100784.25;;;6.90;100.00
10310;BME280;5200;43.236;27.986;2022-11-15T02:38:31;100784.34;;;6.89;100.00
10310;BME280;5200;43.236;27.986;2022-11-15T02:41:03;100777.16;;;6.92;100.00
10310;BME280;5200;43.236;27.986;2022-11-15T02:43:37;100776.22;;;6.93;100.00
10310;BME280;5200;43.236;27.986;2022-11-15T02:46:27;100770.16;;;6.93;100.00
10310;BME280;5200;43.236;27.986;2022-11-15T02:49:11;100765.94;;;6.90;100.00
10310;BME280;5200;43.236;27.986;2022-11-15T02:51:40;100754.38;;;6.80;100.00
10310;BME280;5200;43.236;27.986;2022-11-15T02:54:11;100768.47;;;6.92;100.00
10310;BME280;5200;43.236;27.986;2022-11-15T02:56:38;100764.75;;;6.82;100.00
10310;BME280;5200;43.236;27.986;2022-11-15T02:59:18;100767.72;;;6.90;100.00
10310;BME280;5200;43.236;27.986;2022-11-15T03:02:00;100760.81;;;6.89;100.00
10310;BME280;5200;43.236;27.986;2022-11-15T03:04:37;100760.50;;;6.93;100.00
10310;BME280;5200;43.236;27.986;2022-11-15T03:07:12;100764.09;;;6.92;100.00
10310;BME280;5200;43.236;27.986;2022-11-15T03:09:47;100758.03;;;6.92;100.00
10310;BME280;5200;43.236;27.986;2022-11-15T03:12:23;100760.91;;;6.87;100.00
10310;BME280;5200;43.236;27.986;2022-11-15T03:14:57;100762.59;;;6.88;100.00
10310;BME280;5200;43.236;27.986;2022-11-15T03:17:30;100766.03;;;6.89;100.00
10310;BME280;5200;43.236;27.986;2022-11-15T03:20:03;100758.38;;;6.86;100.00
10310;BME280;5200;43.236;27.986;2022-11-15T03:22:35;100756.31;;;6.91;100.00
10310;BME280;5200;43.236;27.986;2022-11-15T03:25:05;100750.75;;;6.83;100.00
10310;BME280;5200;43.236;27.986;2022-11-15T03:27:36;100750.34;;;6.89;100.00
10310;BME280;5200;43.236;27.986;2022-11-15T03:30:08;100746.81;;;6.90;100.00
10310;BME280;5200;43.236;27.986;2022-11-15T03:32:39;100740.06;;;6.86;100.00
10310;BME280;5200;43.236;27.986;2022-11-15T03:35:11;100735.22;;;6.94;100.00
10310;BME280;5200;43.236;27.986;2022-11-15T03:37:43;100735.22;;;6.94;100.00
10310;BME280;5200;43.236;27.986;2022-11-15T03:40:12;100728.09;;;6.96;100.00
10310;BME280;5200;43.236;27.986;2022-11-15T03:42:43;100722.72;;;6.85;100.00
10310;BME280;5200;43.236;27.986;2022-11-15T03:45:15;100730.16;;;6.91;100.00
10310;BME280;5200;43.236;27.986;2022-11-15T03:47:48;100721.41;;;6.92;100.00
10310;BME280;5200;43.236;27.986;2022-11-15T03:50:17;100719.69;;;6.91;100.00
10310;BME280;5200;43.236;27.986;2022-11-15T03:52:46;100726.41;;;6.95;100.00
10310;BME280;5200;43.236;27.986;2022-11-15T03:55:15;100721.94;;;6.97;100.00
10310;BME280;5200;43.236;27.986;2022-11-15T03:57:44;100716.50;;;7.00;100.00
10310;BME280;5200;43.236;27.986;2022-11-15T04:00:12;100714.09;;;6.97;100.00
10310;BME280;5200;43.236;27.986;2022-11-15T04:02:38;100715.97;;;6.95;100.00
10310;BME280;5200;43.236;27.986;2022-11-15T04:05:07;100722.22;;;6.92;100.00
10310;BME280;5200;43.236;27.986;2022-11-15T04:07:34;100711.84;;;6.91;100.00
10310;BME280;5200;43.236;27.986;2022-11-15T04:10:02;100710.06;;;6.91;100.00
10310;BME280;5200;43.236;27.986;2022-11-15T04:12:29;100711.28;;;7.00;100.00
10310;BME280;5200;43.236;27.986;2022-11-15T04:15:00;100717.44;;;6.99;100.00
10310;BME280;5200;43.236;27.986;2022-11-15T04:17:40;100709.06;;;6.94;100.00
10310;BME280;5200;43.236;27.986;2022-11-15T04:20:11;100703.81;;;6.94;100.00
10310;BME280;5200;43.236;27.986;2022-11-15T04:22:56;100715.59;;;7.01;100.00
10310;BME280;5200;43.236;27.986;2022-11-15T04:25:42;100715.59;;;7.01;100.00
10310;BME280;5200;43.236;27.986;2022-11-15T04:28:09;100703.63;;;6.97;100.00
10310;BME280;5200;43.236;27.986;2022-11-15T04:30:36;100695.41;;;6.89;100.00
10310;BME280;5200;43.236;27.986;2022-11-15T04:33:03;100702.88;;;6.95;100.00
10310;BME280;5200;43.236;27.986;2022-11-15T04:35:32;100703.81;;;6.94;100.00
10310;BME280;5200;43.236;27.986;2022-11-15T04:37:59;100708.13;;;6.95;100.00
10310;BME280;5200;43.236;27.986;2022-11-15T04:40:25;100704.47;;;6.97;100.00
10310;BME280;5200;43.236;27.986;2022-11-15T04:42:52;100700.63;;;6.89;100.00
10310;BME280;5200;43.236;27.986;2022-11-15T04:45:19;100705.69;;;6.92;100.00
10310;BME280;5200;43.236;27.986;2022-11-15T04:47:46;100696.34;;;6.88;100.00
10310;BME280;5200;43.236;27.986;2022-11-15T04:50:14;100708.19;;;6.93;100.00
10310;BME280;5200;43.236;27.986;2022-11-15T04:52:48;100708.03;;;6.96;100.00
10310;BME280;5200;43.236;27.986;2022-11-15T04:55:16;100706.44;;;6.94;100.00
10310;BME280;5200;43.236;27.986;2022-11-15T04:57:43;100707.16;;;6.96;100.00
10310;BME280;5200;43.236;27.986;2022-11-15T05:00:12;100706.16;;;6.98;100.00
10310;BME280;5200;43.236;27.986;2022-11-15T05:02:39;100710.53;;;6.98;100.00
10310;BME280;5200;43.236;27.986;2022-11-15T05:05:24;100710.97;;;7.05;100.00
10310;BME280;5200;43.236;27.986;2022-11-15T05:07:52;100707.88;;;7.12;100.00
10310;BME280;5200;43.236;27.986;2022-11-15T05:10:19;100703.75;;;7.23;100.00
10310;BME280;5200;43.236;27.986;2022-11-15T05:12:46;100695.47;;;7.29;100.00
10310;BME280;5200;43.236;27.986;2022-11-15T05:15:13;100698.66;;;7.34;100.00
10310;BME280;5200;43.236;27.986;2022-11-15T05:17:40;100701.09;;;7.50;100.00
10310;BME280;5200;43.236;27.986;2022-11-15T05:20:08;100688.09;;;7.48;100.00
10310;BME280;5200;43.236;27.986;2022-11-15T05:22:35;100693.34;;;7.48;100.00
10310;BME280;5200;43.236;27.986;2022-11-15T05:25:04;100696.88;;;7.47;100.00
10310;BME280;5200;43.236;27.986;2022-11-15T05:27:32;100707.72;;;7.55;100.00
10310;BME280;5200;43.236;27.986;2022-11-15T05:29:59;100705.28;;;7.52;100.00
10310;BME280;5200;43.236;27.986;2022-11-15T05:32:26;100706.53;;;7.59;100.00
10310;BME280;5200;43.236;27.986;2022-11-15T05:34:54;100701.63;;;7.55;100.00
10310;BME280;5200;43.236;27.986;2022-11-15T05:37:21;100704.78;;;7.60;100.00
10310;BME280;5200;43.236;27.986;2022-11-15T05:39:48;100708.03;;;7.63;100.00
10310;BME280;5200;43.236;27.986;2022-11-15T05:42:17;100706.91;;;7.68;100.00
10310;BME280;5200;43.236;27.986;2022-11-15T05:44:46;100712.28;;;7.79;100.00
10310;BME280;5200;43.236;27.986;2022-11-15T05:47:17;100710.09;;;7.86;100.00
10310;BME280;5200;43.236;27.986;2022-11-15T05:49:45;100715.31;;;7.86;100.00
10310;BME280;5200;43.236;27.986;2022-11-15T05:52:16;100712.28;;;7.79;100.00
10310;BME280;5200;43.236;27.986;2022-11-15T05:54:43;100712.03;;;7.69;100.00
10310;BME280;5200;43.236;27.986;2022-11-15T05:57:10;100707.22;;;7.76;100.00
10310;BME280;5200;43.236;27.986;2022-11-15T05:59:39;100709.13;;;7.74;100.00
10310;BME280;5200;43.236;27.986;2022-11-15T06:02:06;100720.88;;;7.81;100.00
10310;BME280;5200;43.236;27.986;2022-11-15T06:04:33;100711.00;;;7.84;100.00
10310;BME280;5200;43.236;27.986;2022-11-15T06:07:00;100709.78;;;7.90;100.00
10310;BME280;5200;43.236;27.986;2022-11-15T06:09:26;100706.41;;;7.88;100.00
10310;BME280;5200;43.236;27.986;2022-11-15T06:11:53;100713.53;;;7.86;100.00
10310;BME280;5200;43.236;27.986;2022-11-15T06:14:20;100712.44;;;7.76;100.00
10310;BME280;5200;43.236;27.986;2022-11-15T06:16:48;100707.00;;;7.66;100.00
10310;BME280;5200;43.236;27.986;2022-11-15T06:19:15;100715.28;;;7.60;100.00
10310;BME280;5200;43.236;27.986;2022-11-15T06:21:42;100714.09;;;7.51;100.00
10310;BME280;5200;43.236;27.986;2022-11-15T06:24:09;100708.63;;;7.54;100.00
10310;BME280;5200;43.236;27.986;2022-11-15T06:26:36;100707.59;;;7.57;100.00
10310;BME280;5200;43.236;27.986;2022-11-15T06:29:03;100696.28;;;7.56;100.00
10310;BME280;5200;43.236;27.986;2022-11-15T06:31:30;100708.47;;;7.57;100.00
10310;BME280;5200;43.236;27.986;2022-11-15T06:33:59;100707.28;;;7.61;100.00
10310;BME280;5200;43.236;27.986;2022-11-15T06:36:25;100708.03;;;7.63;100.00
10310;BME280;5200;43.236;27.986;2022-11-15T06:38:52;100708.69;;;7.67;100.00
10310;BME280;5200;43.236;27.986;2022-11-15T06:41:19;100705.75;;;7.72;100.00
10310;BME280;5200;43.236;27.986;2022-11-15T06:43:46;100706.50;;;7.74;100.00
10310;BME280;5200;43.236;27.986;2022-11-15T06:46:13;100702.41;;;7.82;100.00
10310;BME280;5200;43.236;27.986;2022-11-15T06:48:40;100706.59;;;7.85;100.00
10310;BME280;5200;43.236;27.986;2022-11-15T06:51:08;100700.31;;;7.88;100.00
10310;BME280;5200;43.236;27.986;2022-11-15T06:53:35;100702.84;;;7.89;100.00
10310;BME280;5200;43.236;27.986;2022-11-15T06:56:04;100702.22;;;7.98;100.00
10310;BME280;5200;43.236;27.986;2022-11-15T06:58:31;100704.00;;;7.98;100.00
10310;BME280;5200;43.236;27.986;2022-11-15T07:00:59;100714.78;;;8.06;100.00
10310;BME280;5200;43.236;27.986;2022-11-15T07:03:26;100711.84;;;8.11;100.00
10310;BME280;5200;43.236;27.986;2022-11-15T07:05:53;100702.44;;;8.21;100.00
10310;BME280;5200;43.236;27.986;2022-11-15T07:08:22;100706.53;;;8.38;100.00
10310;BME280;5200;43.236;27.986;2022-11-15T07:10:50;100711.56;;;8.54;100.00
10310;BME280;5200;43.236;27.986;2022-11-15T07:13:17;100710.91;;;8.76;100.00
10310;BME280;5200;43.236;27.986;2022-11-15T07:15:44;100710.25;;;8.85;100.00
10310;BME280;5200;43.236;27.986;2022-11-15T07:18:11;100705.16;;;8.95;100.00
10310;BME280;5200;43.236;27.986;2022-11-15T07:20:38;100705.34;;;9.04;100.00
10310;BME280;5200;43.236;27.986;2022-11-15T07:23:05;100694.75;;;9.06;100.00
10310;BME280;5200;43.236;27.986;2022-11-15T07:25:34;100694.28;;;9.12;100.00
10310;BME280;5200;43.236;27.986;2022-11-15T07:28:01;100692.38;;;9.14;100.00
10310;BME280;5200;43.236;27.986;2022-11-15T07:30:30;100685.06;;;9.06;100.00
10310;BME280;5200;43.236;27.986;2022-11-15T07:32:58;100690.41;;;9.05;100.00
10310;BME280;5200;43.236;27.986;2022-11-15T07:35:26;100694.91;;;9.16;100.00
10310;BME280;5200;43.236;27.986;2022-11-15T07:37:54;100692.50;;;9.13;100.00
10310;BME280;5200;43.236;27.986;2022-11-15T07:40:21;100695.41;;;9.21;100.00
10310;BME280;5200;43.236;27.986;2022-11-15T07:42:50;100703.03;;;9.24;100.00
10310;BME280;5200;43.236;27.986;2022-11-15T07:45:20;100690.06;;;9.22;100.00
10310;BME280;5200;43.236;27.986;2022-11-15T07:47:47;100690.66;;;9.26;100.00
10310;BME280;5200;43.236;27.986;2022-11-15T07:50:14;100694.41;;;9.35;100.00
10310;BME280;5200;43.236;27.986;2022-11-15T07:52:41;100676.97;;;9.34;100.00
10310;BME280;5200;43.236;27.986;2022-11-15T07:55:08;100682.00;;;9.37;100.00
10310;BME280;5200;43.236;27.986;2022-11-15T07:57:35;100693.09;;;9.40;100.00
10310;BME280;5200;43.236;27.986;2022-11-15T08:00:05;100687.97;;;9.39;100.00
10310;BME280;5200;43.236;27.986;2022-11-15T08:02:32;100690.81;;;9.36;100.00
10310;BME280;5200;43.236;27.986;2022-11-15T08:04:59;100692.16;;;9.41;100.00
10310;BME280;5200;43.236;27.986;2022-11-15T08:07:28;100686.19;;;9.39;100.00
10310;BME280;5200;43.236;27.986;2022-11-15T08:09:55;100695.19;;;9.48;100.00
10310;BME280;5200;43.236;27.986;2022-11-15T08:12:22;100688.72;;;9.52;100.00
10310;BME280;5200;43.236;27.986;2022-11-15T08:14:49;100692.13;;;9.65;100.00
10310;BME280;5200;43.236;27.986;2022-11-15T08:17:17;100697.13;;;9.68;100.00
10310;BME280;5200;43.236;27.986;2022-11-15T08:19:44;100690.94;;;9.69;100.00
10310;BME280;5200;43.236;27.986;2022-11-15T08:22:11;100684.47;;;9.73;100.00
10310;BME280;5200;43.236;27.986;2022-11-15T08:24:38;100686.19;;;9.74;100.00
10310;BME280;5200;43.236;27.986;2022-11-15T08:27:05;100683.31;;;9.78;100.00
10310;BME280;5200;43.236;27.986;2022-11-15T08:29:40;100696.44;;;9.78;100.00
10310;BME280;5200;43.236;27.986;2022-11-15T08:32:08;100678.31;;;9.86;100.00
10310;BME280;5200;43.236;27.986;2022-11-15T08:34:36;100677.97;;;9.90;100.00
10310;BME280;5200;43.236;27.986;2022-11-15T08:37:04;100675.72;;;9.97;100.00
10310;BME280;5200;43.236;27.986;2022-11-15T08:39:31;100682.63;;;9.98;100.00
10310;BME280;5200;43.236;27.986;2022-11-15T08:41:58;100674.66;;;10.00;100.00
10310;BME280;5200;43.236;27.986;2022-11-15T08:44:25;100680.41;;;10.16;100.00
10310;BME280;5200;43.236;27.986;2022-11-15T08:46:51;100673.81;;;10.22;100.00
10310;BME280;5200;43.236;27.986;2022-11-15T08:49:18;100668.19;;;10.26;100.00
10310;BME280;5200;43.236;27.986;2022-11-15T08:51:46;100665.59;;;10.38;100.00
10310;BME280;5200;43.236;27.986;2022-11-15T08:54:13;100658.28;;;10.41;100.00
10310;BME280;5200;43.236;27.986;2022-11-15T08:56:40;100660.34;;;10.49;100.00
10310;BME280;5200;43.236;27.986;2022-11-15T08:59:07;100654.94;;;10.50;100.00
10310;BME280;5200;43.236;27.986;2022-11-15T09:01:34;100636.53;;;10.50;100.00
10310;BME280;5200;43.236;27.986;2022-11-15T09:04:01;100651.81;;;10.68;100.00
10310;BME280;5200;43.236;27.986;2022-11-15T09:06:29;100641.50;;;10.76;100.00
10310;BME280;5200;43.236;27.986;2022-11-15T09:08:57;100635.97;;;10.79;100.00
10310;BME280;5200;43.236;27.986;2022-11-15T09:11:24;100629.88;;;10.90;100.00
10310;BME280;5200;43.236;27.986;2022-11-15T09:13:52;100627.13;;;10.91;100.00
10310;BME280;5200;43.236;27.986;2022-11-15T09:16:18;100625.13;;;11.05;100.00
10310;BME280;5200;43.236;27.986;2022-11-15T09:18:45;100626.16;;;11.25;100.00
10310;BME280;5200;43.236;27.986;2022-11-15T09:21:12;100626.22;;;11.34;100.00
10310;BME280;5200;43.236;27.986;2022-11-15T09:23:39;100630.97;;;11.40;100.00
10310;BME280;5200;43.236;27.986;2022-11-15T09:26:08;100625.44;;;11.43;100.00
10310;BME280;5200;43.236;27.986;2022-11-15T09:28:36;100622.50;;;11.58;100.00
10310;BME280;5200;43.236;27.986;2022-11-15T09:31:05;100617.28;;;11.68;100.00
10310;BME280;5200;43.236;27.986;2022-11-15T09:33:32;100613.03;;;11.76;100.00
10310;BME280;5200;43.236;27.986;2022-11-15T09:36:03;100613.09;;;11.86;98.89
10310;BME280;5200;43.236;27.986;2022-11-15T09:38:31;100608.19;;;11.81;97.70
10310;BME280;5200;43.236;27.986;2022-11-15T09:41:17;100613.34;;;11.83;97.63
10310;BME280;5200;43.236;27.986;2022-11-15T09:43:53;100607.38;;;11.81;97.88
10310;BME280;5200;43.236;27.986;2022-11-15T09:46:30;100607.94;;;11.84;97.00
10310;BME280;5200;43.236;27.986;2022-11-15T09:49:03;100597.94;;;11.78;96.99
10310;BME280;5200;43.236;27.986;2022-11-15T09:51:32;100603.88;;;11.80;96.52
10310;BME280;5200;43.236;27.986;2022-11-15T09:54:08;100601.66;;;11.76;97.06
10310;BME280;5200;43.236;27.986;2022-11-15T09:56:41;100603.88;;;11.80;97.55
10310;BME280;5200;43.236;27.986;2022-11-15T09:59:19;100610.63;;;11.73;96.67
10310;BME280;5200;43.236;27.986;2022-11-15T10:01:56;100598.56;;;11.71;97.03
10310;BME280;5200;43.236;27.986;2022-11-15T10:04:25;100601.06;;;11.72;97.18
10310;BME280;5200;43.236;27.986;2022-11-15T10:06:57;100594.44;;;11.78;97.68
10310;BME280;5200;43.236;27.986;2022-11-15T10:09:31;100594.31;;;11.79;97.08
10310;BME280;5200;43.236;27.986;2022-11-15T10:12:04;100588.06;;;11.80;97.43
10310;BME280;5200;43.236;27.986;2022-11-15T10:14:31;100590.47;;;11.83;97.60
10310;BME280;5200;43.236;27.986;2022-11-15T10:17:17;100580.28;;;12.00;96.31
10310;BME280;5200;43.236;27.986;2022-11-15T10:19:55;100574.63;;;12.04;96.42
10310;BME280;5200;43.236;27.986;2022-11-15T10:22:28;100572.00;;;12.14;95.87
10310;BME280;5200;43.236;27.986;2022-11-15T10:25:10;100569.22;;;12.16;96.36
10310;BME280;5200;43.236;27.986;2022-11-15T10:27:40;100563.69;;;12.19;95.85
10310;BME280;5200;43.236;27.986;2022-11-15T10:30:12;100556.09;;;12.25;96.05
10310;BME280;5200;43.236;27.986;2022-11-15T10:32:40;100549.53;;;12.30;95.34
10310;BME280;5200;43.236;27.986;2022-11-15T10:35:25;100542.09;;;12.35;96.19
10310;BME280;5200;43.236;27.986;2022-11-15T10:38:04;100550.13;;;12.43;95.40
10310;BME280;5200;43.236;27.986;2022-11-15T10:40:31;100540.56;;;12.42;94.45
10310;BME280;5200;43.236;27.986;2022-11-15T10:43:12;100544.56;;;12.46;94.38
10310;BME280;5200;43.236;27.986;2022-11-15T10:45:39;100540.69;;;12.50;94.72
10310;BME280;5200;43.236;27.986;2022-11-15T10:48:21;100535.13;;;12.43;94.31
10310;BME280;5200;43.236;27.986;2022-11-15T10:50:50;100542.09;;;12.54;95.25
10310;BME280;5200;43.236;27.986;2022-11-15T10:53:24;100532.94;;;12.58;94.70
10310;BME280;5200;43.236;27.986;2022-11-15T10:55:54;100521.00;;;12.54;93.44
10310;BME280;5200;43.236;27.986;2022-11-15T10:58:38;100527.09;;;12.64;94.40
10310;BME280;5200;43.236;27.986;2022-11-15T11:01:11;100511.94;;;12.66;94.19
10310;BME280;5200;43.236;27.986;2022-11-15T11:03:39;100516.69;;;12.73;94.30
10310;BME280;5200;43.236;27.986;2022-11-15T11:06:10;100503.06;;;12.87;92.71
10310;BME280;5200;43.236;27.986;2022-11-15T11:08:37;100504.72;;;12.88;91.85
10310;BME280;5200;43.236;27.986;2022-11-15T11:11:05;100501.22;;;12.97;91.89
10310;BME280;5200;43.236;27.986;2022-11-15T11:13:35;100503.16;;;13.05;90.79
10310;BME280;5200;43.236;27.986;2022-11-15T11:16:17;100492.88;;;13.11;89.90
10310;BME280;5200;43.236;27.986;2022-11-15T11:18:51;100494.25;;;13.16;89.80
10310;BME280;5200;43.236;27.986;2022-11-15T11:21:26;100489.94;;;13.24;89.39
10310;BME280;5200;43.236;27.986;2022-11-15T11:24:01;100482.28;;;13.21;88.72
10310;BME280;5200;43.236;27.986;2022-11-15T11:26:46;100481.88;;;13.16;86.62
10310;BME280;5200;43.236;27.986;2022-11-15T11:29:24;100479.00;;;13.00;86.77
10310;BME280;5200;43.236;27.986;2022-11-15T11:31:59;100473.56;;;13.01;87.15
10310;BME280;5200;43.236;27.986;2022-11-15T11:34:37;100467.31;;;12.93;85.86
10310;BME280;5200;43.236;27.986;2022-11-15T11:37:14;100469.00;;;12.74;87.07
10310;BME280;5200;43.236;27.986;2022-11-15T11:39:52;100465.97;;;12.40;87.91
10310;BME280;5200;43.236;27.986;2022-11-15T11:42:28;100464.41;;;12.08;89.16
10310;BME280;5200;43.236;27.986;2022-11-15T11:45:05;100461.38;;;11.72;91.04
10310;BME280;5200;43.236;27.986;2022-11-15T11:47:39;100464.94;;;11.61;92.07
10310;BME280;5200;43.236;27.986;2022-11-15T11:50:13;100455.47;;;11.59;92.20
10310;BME280;5200;43.236;27.986;2022-11-15T11:52:44;100450.13;;;11.70;92.21
10310;BME280;5200;43.236;27.986;2022-11-15T11:55:20;100451.94;;;11.70;93.21
10310;BME280;5200;43.236;27.986;2022-11-15T11:57:53;100445.94;;;11.58;94.23
10310;BME280;5200;43.236;27.986;2022-11-15T12:00:26;100450.41;;;11.67;94.43
10310;BME280;5200;43.236;27.986;2022-11-15T12:03:03;100443.00;;;11.61;95.15
10310;BME280;5200;43.236;27.986;2022-11-15T12:05:36;100446.88;;;11.57;95.43
10310;BME280;5200;43.236;27.986;2022-11-15T12:08:24;100439.56;;;11.70;94.94
10310;BME280;5200;43.236;27.986;2022-11-15T12:11:00;100415.44;;;11.65;95.21
10310;BME280;5200;43.236;27.986;2022-11-15T12:13:29;100431.69;;;11.80;95.29
10310;BME280;5200;43.236;27.986;2022-11-15T12:16:05;100429.25;;;11.88;95.51
10310;BME280;5200;43.236;27.986;2022-11-15T12:18:35;100428.69;;;11.94;95.77
10310;BME280;5200;43.236;27.986;2022-11-15T12:21:05;100422.34;;;12.07;96.22
10310;BME280;5200;43.236;27.986;2022-11-15T12:23:40;100418.44;;;12.20;96.06
10310;BME280;5200;43.236;27.986;2022-11-15T12:26:14;100406.25;;;12.29;95.55
10310;BME280;5200;43.236;27.986;2022-11-15T12:28:46;100412.50;;;12.47;95.86
10310;BME280;5200;43.236;27.986;2022-11-15T12:31:18;100408.72;;;12.60;95.24
10310;BME280;5200;43.236;27.986;2022-11-15T12:33:48;100400.38;;;12.64;94.81
10310;BME280;5200;43.236;27.986;2022-11-15T12:36:35;100403.72;;;12.66;94.28
10310;BME280;5200;43.236;27.986;2022-11-15T12:39:04;100395.41;;;12.61;93.86
10310;BME280;5200;43.236;27.986;2022-11-15T12:41:32;100399.56;;;12.64;93.68
10310;BME280;5200;43.236;27.986;2022-11-15T12:44:00;100392.34;;;12.66;93.66
10310;BME280;5200;43.236;27.986;2022-11-15T12:47:04;100394.59;;;12.51;93.98
10310;BME280;5200;43.236;27.986;2022-11-15T12:49:45;100393.31;;;12.55;94.37
10310;BME280;5200;43.236;27.986;2022-11-15T12:52:13;100391.09;;;12.51;93.47
10310;BME280;5200;43.236;27.986;2022-11-15T12:55:00;100391.78;;;12.53;93.94
10310;BME280;5200;43.236;27.986;2022-11-15T12:57:42;100383.75;;;12.54;93.69
10310;BME280;5200;43.236;27.986;2022-11-15T13:00:42;100377.34;;;12.47;93.42
10310;BME280;5200;43.236;27.986;2022-11-15T13:03:19;100373.75;;;12.38;93.63
10310;BME280;5200;43.236;27.986;2022-11-15T13:06:04;100374.75;;;12.27;93.53
10310;BME280;5200;43.236;27.986;2022-11-15T13:08:46;100372.09;;;12.18;93.44
10310;BME280;5200;43.236;27.986;2022-11-15T13:11:49;100377.09;;;12.11;94.06
10310;BME280;5200;43.236;27.986;2022-11-15T13:14:45;100370.16;;;12.10;94.17